Alstead Center, New Hampshire
Current Conditions -  °F | °C
As of 6:55 AM on Thursday 23 Oct 2014 (Local Time) from KEEN Reporting Station
Overcast Overcast  
Wind Chill: 45°   Ceiling: 2000
Heat Index: 48°   Visibility: 7mi
Dew Point: 41°   Wind: 7mph
Humidity: 76%   Direction: 360°N
Pressure: 29.79"   Gusts: NA
Location:  43.1141°N, 72.3097°W
Report Text: KEEN 231055Z AUTO 36006KT 7SM OVC020 09/05 A2979 RMK AO1 P0003
Loading
Personal Weather Stations






























Interactive Weather Map
Tropical Storm Tracking
New forecast layout! Learn more

10-Day Weather Forecast

Advertisements
Track Severe Weather on mobile